Time;durP1;ratioP1;P1;durP2;ratioP2;P2;SDS_P1;SDS_P2;PMS_P1;PMS_P2;Temp;Humidity;BMP_temperature;BMP_pressure;BME280_temperature;BME280_humidity;BME280_pressure;Samples;Min_cycle;Max_cycle;Signal;HPM_P1;HPM_P2
2022/04/28 03:02:19;;;;;;;1.30;1.20;;;20.20;47.80;;;;;;5077612;23;45692;-68
2022/04/28 03:04:45;;;;;;;1.35;1.10;;;20.10;48.40;;;;;;4919803;28;45582;-68
2022/04/28 03:12:39;;;;;;;1.40;1.30;;;20.10;47.70;;;;;;4930645;28;44973;-68
2022/04/28 03:15:06;;;;;;;1.50;1.40;;;20.10;47.70;;;;;;4932682;28;45223;-68
2022/04/28 03:17:33;;;;;;;1.80;1.35;;;20.10;47.80;;;;;;4897802;28;45583;-68
2022/04/28 03:19:59;;;;;;;1.40;1.30;;;20.10;47.80;;;;;;4937055;28;45570;-68
2022/04/28 03:22:24;;;;;;;1.42;1.30;;;20.10;47.80;;;;;;4912044;28;45311;-68
2022/04/28 03:24:50;;;;;;;1.38;1.00;;;20.10;47.80;;;;;;4915940;28;45605;-69
2022/04/28 03:27:16;;;;;;;1.30;1.20;;;20.10;47.80;;;;;;4917022;28;45577;-68
2022/04/28 03:29:41;;;;;;;1.10;1.00;;;20.10;47.80;;;;;;4934036;28;46318;-68
2022/04/28 03:32:10;;;;;;;0.80;0.80;;;20.10;47.70;;;;;;4952195;28;46860;-68
2022/04/28 03:34:36;;;;;;;1.33;1.23;;;20.10;47.80;;;;;;4933632;28;45274;-67
2022/04/28 03:37:02;;;;;;;1.33;0.95;;;20.10;47.80;;;;;;4914409;28;44765;-68
2022/04/28 03:39:28;;;;;;;1.33;1.23;;;20.00;47.70;;;;;;4897059;28;46960;-68
2022/04/28 03:41:53;;;;;;;1.48;1.30;;;20.10;47.70;;;;;;4898886;28;45208;-68
2022/04/28 03:44:20;;;;;;;1.65;1.27;;;20.00;47.70;;;;;;4897778;28;45260;-68
2022/04/28 03:46:45;;;;;;;1.60;1.10;;;20.00;47.70;;;;;;4902455;28;45396;-68
2022/04/28 03:49:11;;;;;;;1.17;1.08;;;20.00;47.70;;;;;;4945210;28;48127;-68
2022/04/28 03:51:36;;;;;;;1.20;1.10;;;20.00;47.70;;;;;;4901545;28;45580;-68
2022/04/28 03:54:03;;;;;;;1.30;1.20;;;20.00;47.70;;;;;;4899591;28;46007;-68
2022/04/28 03:56:32;;;;;;;1.90;1.20;;;20.00;47.70;;;;;;4919087;28;45097;-68
2022/04/28 03:58:58;;;;;;;1.45;1.35;;;20.00;47.70;;;;;;4900121;28;47091;-68
2022/04/28 04:01:24;;;;;;;1.20;1.10;;;20.00;47.70;;;;;;4914903;28;45833;-68
2022/04/28 04:03:50;;;;;;;1.30;1.20;;;20.00;47.70;;;;;;4930419;28;45686;-68
2022/04/28 04:06:16;;;;;;;1.75;1.38;;;20.00;47.70;;;;;;4914239;28;45179;-68
2022/04/28 04:08:41;;;;;;;1.52;1.30;;;20.00;47.70;;;;;;4913534;28;45600;-68
2022/04/28 04:11:08;;;;;;;1.33;1.23;;;20.00;47.70;;;;;;4911440;28;45553;-68
2022/04/28 04:13:34;;;;;;;1.15;0.93;;;20.00;47.70;;;;;;4925669;28;44677;-68
2022/04/28 04:16:00;;;;;;;1.67;1.33;;;19.90;47.70;;;;;;4897012;28;45309;-68
2022/04/28 04:18:26;;;;;;;1.30;1.20;;;19.90;47.70;;;;;;4914510;28;46883;-68
2022/04/28 04:20:52;;;;;;;1.60;1.30;;;19.90;47.70;;;;;;4893841;28;46262;-68
2022/04/28 04:23:18;;;;;;;1.60;1.50;;;19.90;47.70;;;;;;4910600;28;45124;-69
2022/04/28 04:25:43;;;;;;;2.03;1.45;;;19.90;47.70;;;;;;4880391;28;45525;-68
2022/04/28 04:28:09;;;;;;;1.35;1.25;;;19.90;47.70;;;;;;4907343;28;46599;-68
2022/04/28 04:33:20;;;;;;;1.30;1.20;;;19.90;47.80;;;;;;4904628;28;45174;-68
2022/04/28 04:35:46;;;;;;;2.00;1.30;;;19.90;47.80;;;;;;4901443;28;45525;-68
2022/04/28 04:38:12;;;;;;;2.00;1.63;;;19.90;47.80;;;;;;4896687;28;48143;-68
2022/04/28 04:40:37;;;;;;;1.42;1.30;;;19.80;47.70;;;;;;4910807;28;45276;-68
2022/04/28 04:43:04;;;;;;;1.77;1.65;;;19.80;47.70;;;;;;4916750;28;45419;-68
2022/04/28 04:45:30;;;;;;;1.75;1.27;;;19.80;47.80;;;;;;4902294;28;45325;-68
2022/04/28 04:47:56;;;;;;;1.27;1.10;;;19.80;47.80;;;;;;4914571;28;46687;-68
2022/04/28 04:50:21;;;;;;;2.22;1.30;;;19.80;47.80;;;;;;4917167;28;45730;-68
2022/04/28 04:52:47;;;;;;;1.73;1.63;;;19.80;47.80;;;;;;4913056;28;45236;-68
2022/04/28 04:55:13;;;;;;;1.60;1.50;;;19.80;47.80;;;;;;4928452;28;45228;-68
2022/04/28 04:57:39;;;;;;;1.48;1.20;;;19.80;47.80;;;;;;4898501;28;46470;-69
2022/04/28 05:00:05;;;;;;;1.38;1.27;;;19.80;47.80;;;;;;4944307;28;45256;-69
2022/04/28 05:02:31;;;;;;;1.25;1.15;;;19.80;47.90;;;;;;4892860;28;45095;-69
2022/04/28 05:05:08;;;;;;;1.70;1.40;;;19.80;47.80;;;;;;4933392;28;44954;-69
2022/04/28 05:07:33;;;;;;;1.40;1.30;;;19.80;47.80;;;;;;4911170;28;46653;-68
2022/04/28 05:09:59;;;;;;;1.77;1.45;;;19.70;47.80;;;;;;4929304;28;44936;-68
2022/04/28 05:12:25;;;;;;;1.70;1.23;;;19.80;47.80;;;;;;4948202;28;45264;-69
2022/04/28 05:14:51;;;;;;;1.35;1.25;;;19.80;47.80;;;;;;4926548;28;45208;-68
2022/04/28 05:17:16;;;;;;;1.33;1.00;;;19.70;47.70;;;;;;4929603;28;45882;-68
2022/04/28 05:19:42;;;;;;;1.42;1.25;;;19.70;47.80;;;;;;4932535;28;45266;-68
2022/04/28 05:22:08;;;;;;;1.60;1.30;;;19.70;47.80;;;;;;4930168;28;45610;-69
2022/04/28 05:24:33;;;;;;;1.42;1.33;;;19.80;47.80;;;;;;4930548;28;44845;-69
2022/04/28 05:26:59;;;;;;;1.50;1.38;;;19.80;47.70;;;;;;4930275;28;45469;-68
2022/04/28 05:29:25;;;;;;;1.85;1.30;;;19.90;47.50;;;;;;4914858;28;45557;-68
2022/04/28 05:31:50;;;;;;;1.52;1.42;;;19.90;47.40;;;;;;4914494;28;45006;-69
2022/04/28 05:34:16;;;;;;;1.25;1.15;;;20.00;47.30;;;;;;4927147;28;45205;-67
2022/04/28 05:36:43;;;;;;;1.55;1.45;;;20.00;47.20;;;;;;4931234;28;46555;-67
2022/04/28 05:39:08;;;;;;;1.40;1.30;;;20.00;47.10;;;;;;4895394;28;45489;-67
2022/04/28 05:41:34;;;;;;;1.67;1.30;;;20.00;47.10;;;;;;4948446;28;45278;-67
2022/04/28 05:46:44;;;;;;;1.75;1.10;;;20.00;47.10;;;;;;4899649;28;47172;-68
2022/04/28 05:49:09;;;;;;;1.30;1.20;;;20.00;47.40;;;;;;4915623;28;45282;-68
2022/04/28 05:51:35;;;;;;;1.23;1.13;;;20.00;47.10;;;;;;4911724;28;45231;-68
2022/04/28 05:54:01;;;;;;;1.55;1.40;;;20.00;47.10;;;;;;4926933;28;45150;-67
2022/04/28 05:56:26;;;;;;;1.20;1.10;;;20.00;47.20;;;;;;4910311;28;45556;-68
2022/04/28 05:58:52;;;;;;;1.83;1.38;;;20.00;47.20;;;;;;4930971;28;45441;-67
2022/04/28 06:01:18;;;;;;;1.20;1.10;;;20.00;47.10;;;;;;4910104;28;45436;-68
2022/04/28 06:03:43;;;;;;;1.50;1.40;;;20.10;47.10;;;;;;4910274;28;45459;-68
2022/04/28 06:06:09;;;;;;;1.48;1.38;;;20.10;46.90;;;;;;4925674;28;46039;-68
2022/04/28 06:08:35;;;;;;;1.30;1.20;;;20.20;46.80;;;;;;4924000;28;45016;-68
2022/04/28 06:11:01;;;;;;;1.48;1.38;;;20.30;46.60;;;;;;4913067;28;45528;-68
2022/04/28 06:13:27;;;;;;;1.20;1.10;;;20.40;46.50;;;;;;4877818;28;45419;-68
2022/04/28 06:15:52;;;;;;;1.50;1.38;;;20.50;46.30;;;;;;4883354;28;47203;-67
2022/04/28 06:18:18;;;;;;;1.77;1.65;;;20.50;46.00;;;;;;4913911;28;45318;-68
2022/04/28 06:20:44;;;;;;;1.60;1.45;;;20.60;46.00;;;;;;4912377;28;45395;-67
2022/04/28 06:23:11;;;;;;;1.40;1.27;;;20.60;45.90;;;;;;4928471;28;45116;-67
2022/04/28 06:25:37;;;;;;;2.20;1.60;;;20.60;45.90;;;;;;4926144;28;46934;-68
2022/04/28 06:28:03;;;;;;;1.40;1.30;;;20.60;46.00;;;;;;4935516;28;45229;-68
2022/04/28 06:30:29;;;;;;;1.33;1.20;;;20.60;46.00;;;;;;4911108;28;45074;-68
2022/04/28 06:32:54;;;;;;;1.52;1.42;;;20.50;46.00;;;;;;4947229;28;45245;-68
2022/04/28 06:35:20;;;;;;;1.83;1.58;;;20.50;46.00;;;;;;4935241;28;47047;-68
2022/04/28 06:37:45;;;;;;;1.23;1.05;;;20.50;46.10;;;;;;4929575;28;45837;-67
2022/04/28 06:40:12;;;;;;;1.40;1.30;;;20.50;46.10;;;;;;4932333;28;45123;-68
2022/04/28 06:42:42;;;;;;;1.33;1.23;;;20.50;46.20;;;;;;4921559;28;45128;-68
2022/04/28 06:45:08;;;;;;;1.50;1.40;;;20.50;46.20;;;;;;4907233;28;46758;-68
2022/04/28 06:47:34;;;;;;;1.50;1.40;;;20.50;46.10;;;;;;4915051;28;45312;-68
2022/04/28 06:50:00;;;;;;;1.27;1.17;;;20.50;46.20;;;;;;4945531;28;45002;-68
2022/04/28 06:52:25;;;;;;;1.30;1.20;;;20.50;46.30;;;;;;4947426;28;45176;-67
2022/04/28 06:54:51;;;;;;;1.77;1.30;;;20.50;46.30;;;;;;4927795;28;45562;-68
2022/04/28 06:57:16;;;;;;;1.23;1.13;;;20.40;46.30;;;;;;4936256;28;45486;-68
2022/04/28 06:59:42;;;;;;;1.05;1.00;;;20.40;46.40;;;;;;4931207;28;45403;-67
2022/04/28 07:02:09;;;;;;;1.75;1.20;;;20.40;46.50;;;;;;4917580;28;45488;-68
2022/04/28 07:04:34;;;;;;;1.45;1.35;;;20.40;46.50;;;;;;4917600;28;45364;-67
2022/04/28 07:07:00;;;;;;;1.30;1.20;;;20.30;46.50;;;;;;4934990;28;45550;-68
2022/04/28 07:09:26;;;;;;;1.50;1.40;;;20.30;46.50;;;;;;4909825;28;44883;-68
2022/04/28 07:11:51;;;;;;;1.50;1.40;;;20.30;46.50;;;;;;4935804;28;45398;-68
2022/04/28 07:14:17;;;;;;;1.33;1.20;;;20.30;46.60;;;;;;4914748;28;45185;-68
2022/04/28 07:16:43;;;;;;;1.25;1.15;;;20.40;46.60;;;;;;4935288;28;45508;-68
2022/04/28 07:19:08;;;;;;;1.20;1.10;;;20.40;46.60;;;;;;4931469;28;45428;-67
2022/04/28 07:21:35;;;;;;;1.10;1.00;;;20.40;46.60;;;;;;4951232;28;45604;-68
2022/04/28 07:24:00;;;;;;;1.25;1.15;;;20.40;46.50;;;;;;4912887;28;45602;-68
2022/04/28 07:26:26;;;;;;;1.52;1.15;;;20.40;46.60;;;;;;4935742;28;45266;-68
2022/04/28 07:28:52;;;;;;;1.17;1.08;;;20.40;46.60;;;;;;4937995;28;45508;-69
2022/04/28 07:31:17;;;;;;;1.20;1.10;;;20.40;46.60;;;;;;4928915;28;45202;-68
2022/04/28 07:33:43;;;;;;;1.40;1.30;;;20.40;46.60;;;;;;4932627;28;46548;-68
2022/04/28 07:36:08;;;;;;;1.40;1.20;;;20.40;46.60;;;;;;4949227;28;45196;-68
2022/04/28 07:38:34;;;;;;;1.23;1.13;;;20.40;46.50;;;;;;4953833;28;44724;-68
2022/04/28 07:41:02;;;;;;;2.13;1.30;;;20.40;46.60;;;;;;4916702;28;45410;-68
2022/04/28 07:43:28;;;;;;;1.10;1.00;;;20.40;46.60;;;;;;4932203;28;45549;-68
2022/04/28 07:45:54;;;;;;;1.23;1.10;;;20.40;46.50;;;;;;4911783;28;46418;-68
2022/04/28 07:48:19;;;;;;;1.23;1.13;;;20.40;46.50;;;;;;4952478;28;45475;-68
2022/04/28 07:50:46;;;;;;;3.47;1.30;;;20.50;46.50;;;;;;4920677;28;45403;-68
2022/04/28 07:53:13;;;;;;;1.35;1.25;;;20.50;46.50;;;;;;4913026;28;48395;-68
2022/04/28 07:55:38;;;;;;;1.55;1.45;;;20.50;46.50;;;;;;4922320;28;45308;-68
2022/04/28 07:58:04;;;;;;;1.27;1.17;;;20.50;46.50;;;;;;4925140;28;45195;-68
2022/04/28 08:00:29;;;;;;;1.35;1.25;;;20.50;46.40;;;;;;4926355;28;44990;-68
2022/04/28 08:02:55;;;;;;;1.23;1.13;;;20.50;46.40;;;;;;4935883;28;45324;-68
2022/04/28 08:05:20;;;;;;;1.20;1.02;;;20.60;46.40;;;;;;4922989;28;45296;-68
2022/04/28 08:07:46;;;;;;;1.70;1.45;;;20.60;47.00;;;;;;4947049;28;44926;-68
2022/04/28 08:10:12;;;;;;;1.70;1.33;;;20.60;46.40;;;;;;4924079;28;45255;-68
2022/04/28 08:12:38;;;;;;;1.52;1.35;;;20.50;46.40;;;;;;4911293;28;47222;-69
2022/04/28 08:15:04;;;;;;;1.30;1.20;;;20.60;47.00;;;;;;4924349;28;45232;-68
2022/04/28 08:17:30;;;;;;;1.40;1.30;;;20.60;47.00;;;;;;4932648;28;45660;-68
2022/04/28 08:19:55;;;;;;;1.20;1.10;;;20.60;46.30;;;;;;4901028;28;44774;-67
2022/04/28 08:22:21;;;;;;;1.20;1.10;;;20.60;46.30;;;;;;4932612;28;45393;-68
2022/04/28 08:24:47;;;;;;;1.92;1.20;;;20.60;46.30;;;;;;4945492;28;45172;-68
2022/04/28 08:27:12;;;;;;;1.50;1.17;;;20.70;46.30;;;;;;4933855;28;45445;-68
2022/04/28 08:29:38;;;;;;;1.45;1.35;;;20.70;46.30;;;;;;4937426;28;44660;-68
2022/04/28 08:32:04;;;;;;;1.20;1.10;;;20.70;46.90;;;;;;4926855;28;45346;-68
2022/04/28 08:34:30;;;;;;;1.20;1.00;;;20.70;46.30;;;;;;4911957;28;45482;-68
2022/04/28 08:36:55;;;;;;;1.52;1.42;;;20.70;46.30;;;;;;4930869;28;45484;-68
2022/04/28 08:39:21;;;;;;;1.45;1.35;;;20.70;46.30;;;;;;4923771;28;45077;-68
2022/04/28 08:41:49;;;;;;;1.27;1.15;;;20.70;46.30;;;;;;4920298;28;45670;-68
2022/04/28 08:44:23;;;;;;;1.25;1.15;;;20.70;46.30;;;;;;4944549;28;45270;-68
2022/04/28 08:46:52;;;;;;;1.38;1.10;;;20.70;46.30;;;;;;4929807;28;45160;-68
2022/04/28 08:49:18;;;;;;;1.17;1.08;;;20.70;46.30;;;;;;4913203;28;44885;-68
2022/04/28 08:51:44;;;;;;;1.42;1.23;;;20.70;46.30;;;;;;4905403;28;45464;-67
2022/04/28 08:54:10;;;;;;;1.33;1.17;;;20.70;46.30;;;;;;4897381;28;45201;-68
2022/04/28 08:56:36;;;;;;;1.33;1.20;;;20.70;46.30;;;;;;4925992;28;45471;-68
2022/04/28 08:59:02;;;;;;;1.30;1.20;;;20.70;46.30;;;;;;4939687;28;44734;-68
2022/04/28 09:01:27;;;;;;;1.10;1.00;;;20.70;46.30;;;;;;4914191;28;45634;-68
2022/04/28 09:03:57;;;;;;;1.98;1.35;;;20.70;46.30;;;;;;4927427;28;44880;-68
2022/04/28 09:06:30;;;;;;;1.23;1.10;;;20.70;46.20;;;;;;4915712;28;45418;-67
2022/04/28 09:08:57;;;;;;;1.45;1.35;;;20.80;46.30;;;;;;4912118;28;45593;-68
2022/04/28 09:11:24;;;;;;;1.10;0.98;;;20.80;46.30;;;;;;4919617;28;46121;-68
2022/04/28 09:14:09;;;;;;;1.13;1.02;;;20.80;46.30;;;;;;4918301;28;45283;-68
2022/04/28 09:16:59;;;;;;;1.25;1.15;;;20.80;46.30;;;;;;4936462;28;45415;-68
2022/04/28 09:19:34;;;;;;;1.20;1.10;;;20.80;46.20;;;;;;4940790;28;45156;-68
2022/04/28 09:22:09;;;;;;;1.98;1.20;;;20.90;46.20;;;;;;4916426;28;45353;-68
2022/04/28 09:24:35;;;;;;;1.25;1.15;;;20.80;46.20;;;;;;4908871;28;44708;-68
2022/04/28 09:27:01;;;;;;;1.08;1.00;;;20.80;46.20;;;;;;4910323;28;44946;-68
2022/04/28 09:29:29;;;;;;;0.95;0.95;;;20.90;46.20;;;;;;4943538;28;44995;-68
2022/04/28 09:31:55;;;;;;;1.40;1.30;;;20.80;46.20;;;;;;4892194;28;46921;-68
2022/04/28 09:34:21;;;;;;;1.40;1.25;;;20.80;46.20;;;;;;4927367;28;45237;-68
2022/04/28 09:36:47;;;;;;;1.08;0.98;;;20.90;46.20;;;;;;4925507;28;45609;-69
2022/04/28 09:44:54;;;;;;;1.30;1.20;;;20.90;46.20;;;;;;4912374;28;44981;-68
2022/04/28 09:47:20;;;;;;;1.27;1.15;;;20.90;46.20;;;;;;4945627;28;44720;-68
2022/04/28 09:49:55;;;;;;;1.48;1.38;;;20.90;46.20;;;;;;4932200;28;45224;-68
2022/04/28 09:52:30;;;;;;;1.20;1.10;;;20.90;46.20;;;;;;4932246;28;47107;-68
2022/04/28 09:55:01;;;;;;;1.02;1.00;;;20.90;46.80;;;;;;4899970;28;45019;-68
2022/04/28 09:57:26;;;;;;;1.10;0.80;;;20.90;46.20;;;;;;4911551;28;45673;-67
2022/04/28 09:59:53;;;;;;;1.20;1.10;;;20.90;46.20;;;;;;4911302;28;45185;-68
2022/04/28 10:02:24;;;;;;;1.38;1.27;;;21.00;46.20;;;;;;4926722;28;46509;-67
2022/04/28 10:04:50;;;;;;;1.38;1.27;;;21.00;46.20;;;;;;4928626;28;45360;-67
2022/04/28 10:07:15;;;;;;;1.27;1.17;;;21.00;46.20;;;;;;4910224;28;45336;-67
2022/04/28 10:09:42;;;;;;;1.33;1.23;;;21.00;46.20;;;;;;4927679;28;45289;-68
2022/04/28 10:12:08;;;;;;;1.52;1.23;;;21.00;46.30;;;;;;4916440;28;45291;-67
2022/04/28 10:14:36;;;;;;;0.93;0.93;;;21.00;46.20;;;;;;4921088;28;45404;-67
2022/04/28 10:17:02;;;;;;;1.30;1.20;;;21.00;46.20;;;;;;4928110;28;45706;-68
2022/04/28 10:19:31;;;;;;;1.33;1.23;;;21.00;46.20;;;;;;4930379;28;45365;-68
2022/04/28 10:22:03;;;;;;;1.17;1.08;;;21.00;46.10;;;;;;4928165;28;45308;-69
2022/04/28 10:32:58;;;;;;;1.20;1.10;;;21.10;46.10;;;;;;4948890;28;46821;-67
2022/04/28 10:35:36;;;;;;;1.00;0.90;;;21.10;46.10;;;;;;4912055;28;45460;-67
2022/04/28 10:38:11;;;;;;;0.93;0.93;;;21.10;46.00;;;;;;4947906;28;45410;-67
2022/04/28 10:40:38;;;;;;;1.25;1.15;;;21.10;46.00;;;;;;4932065;28;45214;-67
2022/04/28 10:43:04;;;;;;;1.65;1.20;;;21.10;46.10;;;;;;4932567;28;46561;-67
2022/04/28 10:45:40;;;;;;;1.20;1.10;;;21.20;46.20;;;;;;4931127;28;46255;-66
2022/04/28 10:48:31;;;;;;;1.20;1.10;;;21.10;46.10;;;;;;4897576;28;45716;-67
2022/04/28 10:51:03;;;;;;;1.38;1.27;;;21.20;46.10;;;;;;4945122;28;44828;-66
2022/04/28 10:53:29;;;;;;;1.02;0.98;;;21.20;46.10;;;;;;4946673;28;45416;-66
2022/04/28 10:55:55;;;;;;;1.83;1.45;;;21.20;46.10;;;;;;4926186;28;45105;-67
2022/04/28 10:58:25;;;;;;;1.27;1.17;;;21.20;46.10;;;;;;4914025;28;45880;-68
2022/04/28 11:00:55;;;;;;;1.42;1.27;;;21.20;46.10;;;;;;4927365;28;45636;-67
2022/04/28 11:03:46;;;;;;;1.08;0.98;;;21.20;46.10;;;;;;4925199;28;45537;-67
2022/04/28 11:06:24;;;;;;;1.17;1.08;;;21.20;46.00;;;;;;4945738;28;45372;-67
2022/04/28 11:08:55;;;;;;;1.02;1.00;;;21.20;46.00;;;;;;4928739;28;46256;-68
2022/04/28 11:11:20;;;;;;;1.25;1.13;;;21.20;46.10;;;;;;4928516;28;45164;-68
2022/04/28 11:13:57;;;;;;;1.10;1.00;;;21.20;46.10;;;;;;4929475;28;45748;-67
2022/04/28 11:16:23;;;;;;;1.35;1.25;;;21.20;46.10;;;;;;4916073;28;45328;-67
2022/04/28 11:18:49;;;;;;;1.10;1.10;;;21.20;46.10;;;;;;4912315;28;46322;-68
2022/04/28 11:21:15;;;;;;;1.33;1.20;;;21.30;46.10;;;;;;4914515;28;45341;-67
2022/04/28 11:23:45;;;;;;;1.17;1.08;;;21.30;46.10;;;;;;4928134;28;47462;-68
2022/04/28 11:26:11;;;;;;;1.13;1.02;;;21.30;46.00;;;;;;4915337;28;44704;-68
2022/04/28 11:28:37;;;;;;;1.10;1.00;;;21.30;46.10;;;;;;4925589;28;45906;-67
2022/04/28 11:31:10;;;;;;;1.17;1.08;;;21.30;46.10;;;;;;4908422;28;45322;-67
2022/04/28 11:33:38;;;;;;;1.40;1.30;;;21.30;46.10;;;;;;4936591;28;46540;-67
2022/04/28 11:36:14;;;;;;;1.10;0.90;;;21.30;46.10;;;;;;4913089;28;45318;-67
2022/04/28 11:38:42;;;;;;;1.60;1.20;;;21.30;46.10;;;;;;4911077;28;45623;-68
2022/04/28 11:41:08;;;;;;;1.23;1.13;;;21.30;46.10;;;;;;4920542;28;46274;-67
2022/04/28 11:43:34;;;;;;;1.23;1.13;;;21.30;46.10;;;;;;4929056;28;45646;-67
2022/04/28 11:46:00;;;;;;;1.30;1.20;;;21.30;46.10;;;;;;4929403;28;45664;-69
2022/04/28 11:48:29;;;;;;;1.30;1.20;;;21.30;46.10;;;;;;4914532;28;45363;-68
2022/04/28 11:51:01;;;;;;;1.33;1.23;;;21.40;46.20;;;;;;4932770;28;45702;-67
2022/04/28 11:53:32;;;;;;;1.10;1.00;;;21.40;46.20;;;;;;4929035;28;46125;-68
2022/04/28 11:55:58;;;;;;;1.00;0.90;;;21.40;46.20;;;;;;4898598;28;45772;-67
2022/04/28 11:58:23;;;;;;;1.42;1.27;;;21.40;46.70;;;;;;4911362;28;45245;-67
2022/04/28 12:00:49;;;;;;;1.10;1.00;;;21.40;46.20;;;;;;4922398;28;45636;-68
2022/04/28 12:03:27;;;;;;;1.35;1.10;;;21.40;46.10;;;;;;4924164;28;46821;-68
2022/04/28 12:05:53;;;;;;;1.00;0.98;;;21.40;46.10;;;;;;4925918;28;45858;-67
2022/04/28 12:08:22;;;;;;;1.40;1.30;;;21.40;46.10;;;;;;4930682;28;45652;-68
2022/04/28 12:16:18;;;;;;;1.25;1.15;;;21.40;46.10;;;;;;4932430;28;45143;-68
2022/04/28 12:21:33;;;;;;;1.40;1.25;;;21.40;46.10;;;;;;4921402;28;45784;-68
2022/04/28 12:24:00;;;;;;;1.35;1.15;;;21.40;46.10;;;;;;4928693;28;45611;-68
2022/04/28 12:26:26;;;;;;;1.20;1.10;;;21.40;46.10;;;;;;4927787;28;45716;-68
2022/04/28 12:28:52;;;;;;;1.13;1.02;;;21.50;46.10;;;;;;4906061;28;45357;-68
2022/04/28 12:31:29;;;;;;;0.90;0.90;;;21.50;46.10;;;;;;4926483;28;45748;-68
2022/04/28 12:33:55;;;;;;;1.23;1.02;;;21.50;46.10;;;;;;4905548;28;47393;-68
2022/04/28 12:36:20;;;;;;;1.10;1.00;;;21.50;46.10;;;;;;4926986;28;45565;-68
2022/04/28 12:38:49;;;;;;;1.45;1.35;;;21.40;46.10;;;;;;4894348;28;44989;-67
2022/04/28 12:41:24;;;;;;;1.08;0.90;;;21.50;46.10;;;;;;4928941;28;45332;-68
2022/04/28 12:43:56;;;;;;;1.20;1.10;;;21.40;46.10;;;;;;4928532;28;45651;-68
2022/04/28 12:46:45;;;;;;;0.90;0.90;;;21.40;46.10;;;;;;4928751;28;45714;-68
2022/04/28 12:49:12;;;;;;;1.08;0.98;;;21.50;46.10;;;;;;4945518;28;45033;-68
2022/04/28 12:51:48;;;;;;;1.00;1.00;;;21.50;46.10;;;;;;4928963;28;45525;-68
2022/04/28 12:54:25;;;;;;;1.20;1.10;;;21.50;46.10;;;;;;4911177;28;45948;-68
2022/04/28 12:56:59;;;;;;;1.17;1.08;;;21.50;46.10;;;;;;4912799;28;46007;-68
2022/04/28 12:59:28;;;;;;;1.20;1.08;;;21.50;46.10;;;;;;4909227;28;45614;-68
2022/04/28 13:01:54;;;;;;;1.30;1.20;;;21.50;46.10;;;;;;4921925;28;45360;-68
2022/04/28 13:04:21;;;;;;;1.10;1.00;;;21.50;46.10;;;;;;4924713;28;46226;-69
2022/04/28 13:06:46;;;;;;;1.42;1.13;;;21.50;46.10;;;;;;4909738;28;45272;-68
2022/04/28 13:09:16;;;;;;;1.33;1.23;;;21.50;46.10;;;;;;4891665;28;45381;-68
2022/04/28 13:11:42;;;;;;;1.30;1.20;;;21.50;46.10;;;;;;4888853;28;45728;-68
2022/04/28 13:14:10;;;;;;;1.10;1.00;;;21.50;46.10;;;;;;4908820;28;46746;-68
2022/04/28 13:16:36;;;;;;;1.13;1.02;;;21.50;46.10;;;;;;4925180;28;45568;-68
2022/04/28 13:19:04;;;;;;;1.25;1.15;;;21.50;46.00;;;;;;4909105;28;45266;-68
2022/04/28 13:21:29;;;;;;;1.00;1.00;;;21.50;46.00;;;;;;4908068;28;45698;-68
2022/04/28 13:23:55;;;;;;;1.30;1.15;;;21.50;46.00;;;;;;4922713;28;46879;-68
2022/04/28 13:26:21;;;;;;;1.35;1.25;;;21.50;46.00;;;;;;4924402;28;45139;-69
2022/04/28 13:28:49;;;;;;;1.20;1.02;;;21.50;46.00;;;;;;4922698;28;44785;-68
2022/04/28 13:31:15;;;;;;;0.88;0.88;;;21.50;46.00;;;;;;4882482;28;45384;-68
2022/04/28 13:33:41;;;;;;;1.88;1.27;;;21.50;46.10;;;;;;4916461;28;46354;-68
2022/04/28 13:36:07;;;;;;;1.00;0.90;;;21.50;46.00;;;;;;4921633;28;45126;-68
2022/04/28 13:38:33;;;;;;;1.05;1.05;;;21.50;46.00;;;;;;4890002;28;45784;-68
2022/04/28 13:40:58;;;;;;;1.05;0.95;;;21.50;46.00;;;;;;4896411;28;45863;-69
2022/04/28 13:43:24;;;;;;;1.10;1.00;;;21.50;46.00;;;;;;4921786;28;46649;-68
2022/04/28 13:45:50;;;;;;;1.40;1.30;;;21.50;46.00;;;;;;4920593;28;45218;-68
2022/04/28 13:48:16;;;;;;;1.10;0.90;;;21.50;46.00;;;;;;4920360;28;45635;-68
2022/04/28 13:50:42;;;;;;;1.52;1.17;;;21.50;46.00;;;;;;4920936;28;45516;-68
2022/04/28 13:53:08;;;;;;;1.20;1.10;;;21.60;46.10;;;;;;4902746;28;46216;-68
2022/04/28 13:55:34;;;;;;;1.20;1.10;;;21.60;46.10;;;;;;4920433;28;45775;-68
2022/04/28 13:57:59;;;;;;;1.20;1.10;;;21.60;46.10;;;;;;4889943;28;45344;-68
2022/04/28 14:00:25;;;;;;;1.10;1.02;;;21.60;46.10;;;;;;4920538;28;45684;-68
2022/04/28 14:02:51;;;;;;;1.20;1.10;;;21.60;46.10;;;;;;4905564;28;46919;-68
2022/04/28 14:05:17;;;;;;;1.15;1.05;;;21.60;46.00;;;;;;4912796;28;45386;-68
2022/04/28 14:07:43;;;;;;;1.05;0.95;;;21.60;46.00;;;;;;4905634;28;45313;-68
2022/04/28 14:10:10;;;;;;;1.20;1.10;;;21.60;46.00;;;;;;4922608;28;45865;-68
2022/04/28 14:12:37;;;;;;;0.98;0.93;;;21.60;46.10;;;;;;4906616;28;45711;-68
2022/04/28 14:15:03;;;;;;;0.77;0.77;;;21.60;46.10;;;;;;4900533;28;45295;-68
2022/04/28 14:17:30;;;;;;;1.20;1.13;;;21.60;46.10;;;;;;4912382;28;45115;-68
2022/04/28 14:19:55;;;;;;;1.27;1.17;;;21.60;46.10;;;;;;4900185;28;45359;-69
2022/04/28 14:22:21;;;;;;;1.30;1.05;;;21.60;46.10;;;;;;4896265;28;46754;-68
2022/04/28 14:24:48;;;;;;;1.00;1.00;;;21.60;46.10;;;;;;4900557;28;45886;-68
2022/04/28 14:27:17;;;;;;;1.20;1.10;;;21.60;46.10;;;;;;4902439;28;45809;-68
2022/04/28 14:29:42;;;;;;;1.05;0.95;;;21.60;46.10;;;;;;4880636;28;45704;-68
2022/04/28 14:32:08;;;;;;;1.30;1.08;;;21.60;46.10;;;;;;4915489;28;47191;-68
2022/04/28 14:34:34;;;;;;;0.90;0.90;;;21.50;46.10;;;;;;4916004;28;46257;-68
2022/04/28 14:37:00;;;;;;;0.93;0.93;;;21.60;46.10;;;;;;4898618;28;45667;-69
2022/04/28 14:39:26;;;;;;;1.13;1.02;;;21.60;46.10;;;;;;4916046;28;45742;-68
2022/04/28 14:41:51;;;;;;;1.20;1.10;;;21.60;46.10;;;;;;4916664;28;46545;-68
2022/04/28 14:44:17;;;;;;;0.88;0.88;;;21.60;46.10;;;;;;4912343;28;46314;-68
2022/04/28 14:46:43;;;;;;;1.48;1.30;;;21.60;46.10;;;;;;4917351;28;45563;-68
2022/04/28 14:54:37;;;;;;;0.70;0.70;;;21.60;46.10;;;;;;4905762;28;45332;-67
2022/04/28 14:57:03;;;;;;;0.90;0.90;;;21.60;46.80;;;;;;4920056;28;45781;-67
2022/04/28 14:59:28;;;;;;;1.17;1.08;;;21.60;46.10;;;;;;4900323;28;45639;-68
2022/04/28 15:01:54;;;;;;;1.10;1.02;;;21.60;46.10;;;;;;4916893;28;45466;-68
2022/04/28 15:04:20;;;;;;;1.20;1.10;;;21.60;46.10;;;;;;4919784;28;45480;-68
2022/04/28 15:06:46;;;;;;;1.38;1.10;;;21.60;46.00;;;;;;4919201;28;45678;-68
2022/04/28 15:09:11;;;;;;;0.88;0.88;;;21.60;46.10;;;;;;4923894;28;46183;-69
2022/04/28 15:11:37;;;;;;;1.20;1.10;;;21.60;46.10;;;;;;4926460;28;45557;-68
2022/04/28 15:14:02;;;;;;;1.40;1.13;;;21.60;46.10;;;;;;4905332;28;45720;-69
2022/04/28 15:16:28;;;;;;;1.08;1.00;;;21.50;46.10;;;;;;4903349;28;45849;-68
2022/04/28 15:18:54;;;;;;;1.20;1.10;;;21.50;46.10;;;;;;4902124;28;46185;-68
2022/04/28 15:21:19;;;;;;;0.80;0.80;;;21.50;46.10;;;;;;4919136;28;47674;-67
2022/04/28 15:23:45;;;;;;;1.48;0.85;;;21.50;46.20;;;;;;4918510;28;45759;-68
2022/04/28 15:26:13;;;;;;;1.15;0.88;;;21.50;46.20;;;;;;4885920;28;45855;-68
2022/04/28 15:28:39;;;;;;;1.08;1.00;;;21.50;46.20;;;;;;4918894;28;45463;-68
2022/04/28 15:31:05;;;;;;;1.30;1.20;;;21.50;46.20;;;;;;4884206;28;46211;-68
2022/04/28 15:33:31;;;;;;;0.88;0.88;;;21.50;46.20;;;;;;4883977;28;45684;-68
2022/04/28 15:35:56;;;;;;;1.27;1.05;;;21.50;46.20;;;;;;4934800;28;44792;-68
2022/04/28 15:38:22;;;;;;;1.50;1.20;;;21.50;46.20;;;;;;4905321;28;45339;-68
2022/04/28 15:40:48;;;;;;;1.25;1.15;;;21.50;46.30;;;;;;4915942;28;46747;-68
2022/04/28 15:43:14;;;;;;;0.90;0.90;;;21.50;46.30;;;;;;4918521;28;44752;-68
2022/04/28 15:45:39;;;;;;;0.88;0.85;;;21.50;46.30;;;;;;4919349;28;45451;-68
2022/04/28 15:48:05;;;;;;;1.00;0.90;;;21.50;46.30;;;;;;4917936;28;45460;-68
2022/04/28 15:50:31;;;;;;;1.05;0.95;;;21.50;46.30;;;;;;4916768;28;46831;-68
2022/04/28 15:52:56;;;;;;;0.93;0.90;;;21.50;46.30;;;;;;4917088;28;46244;-68
2022/04/28 15:55:22;;;;;;;0.93;0.93;;;21.50;46.30;;;;;;4901694;28;45327;-68
2022/04/28 15:57:48;;;;;;;1.17;1.08;;;21.50;46.30;;;;;;4903219;28;45346;-69
2022/04/28 16:00:16;;;;;;;0.95;0.88;;;21.50;46.30;;;;;;4918506;28;47788;-68
2022/04/28 16:02:41;;;;;;;1.05;0.95;;;21.50;46.20;;;;;;4900873;28;45567;-68
2022/04/28 16:05:07;;;;;;;1.23;1.10;;;21.50;46.30;;;;;;4902934;28;45747;-69
2022/04/28 16:07:34;;;;;;;1.00;0.90;;;21.50;46.30;;;;;;4920067;28;46545;-68
2022/04/28 16:10:01;;;;;;;1.00;0.90;;;21.50;46.30;;;;;;4917894;28;46416;-69
2022/04/28 16:12:28;;;;;;;1.20;1.10;;;21.50;46.30;;;;;;4902464;28;45685;-68
2022/04/28 16:14:54;;;;;;;0.80;0.80;;;21.50;46.30;;;;;;4918420;28;45418;-68
2022/04/28 16:17:20;;;;;;;1.10;1.00;;;21.40;46.30;;;;;;4901911;28;46261;-69
2022/04/28 16:19:45;;;;;;;0.85;0.82;;;21.40;46.30;;;;;;4901495;28;46884;-68
2022/04/28 16:22:13;;;;;;;2.17;0.98;;;21.40;46.40;;;;;;4903567;28;45310;-68
2022/04/28 16:24:39;;;;;;;0.60;0.60;;;21.40;46.30;;;;;;4886336;28;45669;-68
2022/04/28 16:27:05;;;;;;;0.88;0.88;;;21.50;46.40;;;;;;4886562;28;45550;-68